sensor_id;sensor_type;location;lat;lon;timestamp;pressure;altitude;pressure_sealevel;temperature;humidity
22930;BME280;11630;42.660;23.292;2023-04-26T00:01:36;68683.67;;;10.43;100.00
22930;BME280;11630;42.660;23.292;2023-04-26T00:04:07;68690.20;;;10.47;100.00
22930;BME280;11630;42.660;23.292;2023-04-26T00:06:38;68693.18;;;10.51;100.00
22930;BME280;11630;42.660;23.292;2023-04-26T00:09:09;68685.86;;;10.43;100.00
22930;BME280;11630;42.660;23.292;2023-04-26T00:11:39;68689.11;;;10.48;100.00
22930;BME280;11630;42.660;23.292;2023-04-26T00:14:09;68680.97;;;10.46;100.00
22930;BME280;11630;42.660;23.292;2023-04-26T00:16:40;68685.30;;;10.45;100.00
22930;BME280;11630;42.660;23.292;2023-04-26T00:19:10;68686.66;;;10.45;100.00
22930;BME280;11630;42.660;23.292;2023-04-26T00:21:40;68648.34;;;10.11;100.00
22930;BME280;11630;42.660;23.292;2023-04-26T00:24:11;68644.80;;;10.09;100.00
22930;BME280;11630;42.660;23.292;2023-04-26T00:26:42;68645.63;;;10.11;100.00
22930;BME280;11630;42.660;23.292;2023-04-26T00:29:12;68621.94;;;9.83;100.00
22930;BME280;11630;42.660;23.292;2023-04-26T00:31:43;68600.75;;;9.71;100.00
22930;BME280;11630;42.660;23.292;2023-04-26T00:34:14;68617.84;;;9.78;100.00
22930;BME280;11630;42.660;23.292;2023-04-26T00:36:45;68628.45;;;9.89;100.00
22930;BME280;11630;42.660;23.292;2023-04-26T00:39:17;68619.77;;;9.86;100.00
22930;BME280;11630;42.660;23.292;2023-04-26T00:41:48;68613.52;;;9.79;100.00
22930;BME280;11630;42.660;23.292;2023-04-26T00:44:21;68618.41;;;9.86;100.00
22930;BME280;11630;42.660;23.292;2023-04-26T00:46:53;68615.69;;;9.76;100.00
22930;BME280;11630;42.660;23.292;2023-04-26T00:49:25;68608.88;;;9.71;100.00
22930;BME280;11630;42.660;23.292;2023-04-26T00:51:55;68599.39;;;9.66;100.00
22930;BME280;11630;42.660;23.292;2023-04-26T00:54:26;68603.19;;;9.67;100.00
22930;BME280;11630;42.660;23.292;2023-04-26T00:56:58;68586.88;;;9.47;100.00
22930;BME280;11630;42.660;23.292;2023-04-26T00:59:29;68559.97;;;9.29;100.00
22930;BME280;11630;42.660;23.292;2023-04-26T01:02:03;68536.33;;;9.04;100.00
22930;BME280;11630;42.660;23.292;2023-04-26T01:04:36;68530.38;;;9.01;100.00
22930;BME280;11630;42.660;23.292;2023-04-26T01:07:06;68534.17;;;9.04;100.00
22930;BME280;11630;42.660;23.292;2023-04-26T01:09:37;68528.50;;;9.08;100.00
22930;BME280;11630;42.660;23.292;2023-04-26T01:12:10;68539.60;;;9.09;100.00
22930;BME280;11630;42.660;23.292;2023-04-26T01:14:40;68541.52;;;9.12;100.00
22930;BME280;11630;42.660;23.292;2023-04-26T01:17:11;68552.37;;;9.22;100.00
22930;BME280;11630;42.660;23.292;2023-04-26T01:19:48;68556.17;;;9.25;100.00
22930;BME280;11630;42.660;23.292;2023-04-26T01:22:20;68570.84;;;9.36;100.00
22930;BME280;11630;42.660;23.292;2023-04-26T01:24:54;68560.80;;;9.28;100.00
22930;BME280;11630;42.660;23.292;2023-04-26T01:27:25;68551.30;;;9.23;100.00
22930;BME280;11630;42.660;23.292;2023-04-26T01:29:55;68563.23;;;9.29;100.00
22930;BME280;11630;42.660;23.292;2023-04-26T01:32:26;68541.52;;;9.10;100.00
22930;BME280;11630;42.660;23.292;2023-04-26T01:34:58;68529.82;;;9.00;100.00
22930;BME280;11630;42.660;23.292;2023-04-26T01:37:29;68521.16;;;8.95;100.00
22930;BME280;11630;42.660;23.292;2023-04-26T01:39:59;68510.53;;;8.79;100.00
22930;BME280;11630;42.660;23.292;2023-04-26T01:42:29;68514.91;;;8.88;100.00
22930;BME280;11630;42.660;23.292;2023-04-26T01:44:59;68483.68;;;8.60;100.00
22930;BME280;11630;42.660;23.292;2023-04-26T01:47:30;68473.34;;;8.46;100.00
22930;BME280;11630;42.660;23.292;2023-04-26T01:50:01;68470.63;;;8.46;100.00
22930;BME280;11630;42.660;23.292;2023-04-26T01:52:32;68490.45;;;8.63;100.00
22930;BME280;11630;42.660;23.292;2023-04-26T01:55:03;68507.02;;;8.82;100.00
22930;BME280;11630;42.660;23.292;2023-04-26T01:57:33;68519.51;;;8.93;100.00
22930;BME280;11630;42.660;23.292;2023-04-26T02:00:06;68526.58;;;9.02;100.00
22930;BME280;11630;42.660;23.292;2023-04-26T02:02:37;68532.27;;;9.04;100.00
22930;BME280;11630;42.660;23.292;2023-04-26T02:05:09;68541.78;;;9.14;100.00
22930;BME280;11630;42.660;23.292;2023-04-26T02:07:42;68524.13;;;8.94;100.00
22930;BME280;11630;42.660;23.292;2023-04-26T02:10:13;68532.83;;;9.07;100.00
22930;BME280;11630;42.660;23.292;2023-04-26T02:12:44;68541.25;;;9.13;100.00
22930;BME280;11630;42.660;23.292;2023-04-26T02:15:15;68541.52;;;9.12;100.00
22930;BME280;11630;42.660;23.292;2023-04-26T02:17:46;68542.31;;;9.09;100.00
22930;BME280;11630;42.660;23.292;2023-04-26T02:20:17;68537.16;;;9.08;100.00
22930;BME280;11630;42.660;23.292;2023-04-26T02:22:47;68543.70;;;9.14;100.00
22930;BME280;11630;42.660;23.292;2023-04-26T02:25:18;68537.42;;;9.07;100.00
22930;BME280;11630;42.660;23.292;2023-04-26T02:27:48;68542.31;;;9.12;100.00
22930;BME280;11630;42.660;23.292;2023-04-26T02:30:20;68534.17;;;9.04;100.00
22930;BME280;11630;42.660;23.292;2023-04-26T02:32:54;68535.53;;;9.07;100.00
22930;BME280;11630;42.660;23.292;2023-04-26T02:35:24;68541.25;;;9.13;100.00
22930;BME280;11630;42.660;23.292;2023-04-26T02:37:55;68545.33;;;9.18;100.00
22930;BME280;11630;42.660;23.292;2023-04-26T02:40:26;68539.60;;;9.09;100.00
22930;BME280;11630;42.660;23.292;2023-04-26T02:42:56;68547.76;;;9.14;100.00
22930;BME280;11630;42.660;23.292;2023-04-26T02:45:27;68545.58;;;9.15;100.00
22930;BME280;11630;42.660;23.292;2023-04-26T02:47:58;68553.19;;;9.21;100.00
22930;BME280;11630;42.660;23.292;2023-04-26T02:50:29;68544.23;;;9.15;100.00
22930;BME280;11630;42.660;23.292;2023-04-26T02:53:00;68564.59;;;9.32;100.00
22930;BME280;11630;42.660;23.292;2023-04-26T02:55:31;68573.56;;;9.41;100.00
22930;BME280;11630;42.660;23.292;2023-04-26T02:58:02;68579.80;;;9.43;100.00
22930;BME280;11630;42.660;23.292;2023-04-26T03:00:32;68593.40;;;9.58;100.00
22930;BME280;11630;42.660;23.292;2023-04-26T03:03:03;68598.28;;;9.58;100.00
22930;BME280;11630;42.660;23.292;2023-04-26T03:05:33;68597.73;;;9.57;100.00
22930;BME280;11630;42.660;23.292;2023-04-26T03:08:04;68591.78;;;9.59;100.00
22930;BME280;11630;42.660;23.292;2023-04-26T03:10:35;68573.30;;;9.42;100.00
22930;BME280;11630;42.660;23.292;2023-04-26T03:13:06;68581.98;;;9.45;100.00
22930;BME280;11630;42.660;23.292;2023-04-26T03:15:36;68584.17;;;9.50;100.00
22930;BME280;11630;42.660;23.292;2023-04-26T03:18:07;68583.61;;;9.47;100.00
22930;BME280;11630;42.660;23.292;2023-04-26T03:20:38;68587.97;;;9.53;100.00
22930;BME280;11630;42.660;23.292;2023-04-26T03:23:09;68599.91;;;9.64;100.00
22930;BME280;11630;42.660;23.292;2023-04-26T03:25:39;68597.73;;;9.60;100.00
22930;BME280;11630;42.660;23.292;2023-04-26T03:28:08;68592.31;;;9.62;100.00
22930;BME280;11630;42.660;23.292;2023-04-26T03:30:39;68605.08;;;9.70;100.00
22930;BME280;11630;42.660;23.292;2023-04-26T03:33:10;68614.33;;;9.76;100.00
22930;BME280;11630;42.660;23.292;2023-04-26T03:35:41;68608.62;;;9.75;100.00
22930;BME280;11630;42.660;23.292;2023-04-26T03:38:12;68612.41;;;9.73;100.00
22930;BME280;11630;42.660;23.292;2023-04-26T03:40:43;68615.13;;;9.71;100.00
22930;BME280;11630;42.660;23.292;2023-04-26T03:43:14;68619.49;;;9.82;100.00
22930;BME280;11630;42.660;23.292;2023-04-26T03:45:46;68625.75;;;9.92;100.00
22930;BME280;11630;42.660;23.292;2023-04-26T03:48:17;68627.92;;;9.91;100.00
22930;BME280;11630;42.660;23.292;2023-04-26T03:50:48;68637.42;;;9.96;100.00
22930;BME280;11630;42.660;23.292;2023-04-26T03:53:19;68646.15;;;10.06;100.00
22930;BME280;11630;42.660;23.292;2023-04-26T03:55:49;68651.05;;;10.11;100.00
22930;BME280;11630;42.660;23.292;2023-04-26T03:58:23;68656.20;;;10.12;100.00
22930;BME280;11630;42.660;23.292;2023-04-26T04:00:57;68651.05;;;10.13;100.00
22930;BME280;11630;42.660;23.292;2023-04-26T04:03:27;68661.64;;;10.22;100.00
22930;BME280;11630;42.660;23.292;2023-04-26T04:05:58;68683.38;;;10.37;100.00
22930;BME280;11630;42.660;23.292;2023-04-26T04:08:29;68681.50;;;10.39;100.00
22930;BME280;11630;42.660;23.292;2023-04-26T04:10:59;68662.73;;;10.23;100.00
22930;BME280;11630;42.660;23.292;2023-04-26T04:13:29;68636.09;;;9.98;100.00
22930;BME280;11630;42.660;23.292;2023-04-26T04:16:01;68640.72;;;10.04;100.00
22930;BME280;11630;42.660;23.292;2023-04-26T04:18:31;68618.96;;;9.84;100.00
22930;BME280;11630;42.660;23.292;2023-04-26T04:21:02;68627.64;;;9.92;100.00
22930;BME280;11630;42.660;23.292;2023-04-26T04:23:33;68638.54;;;9.99;100.00
22930;BME280;11630;42.660;23.292;2023-04-26T04:26:04;68654.85;;;10.14;100.00
22930;BME280;11630;42.660;23.292;2023-04-26T04:28:34;68664.38;;;10.24;100.00
22930;BME280;11630;42.660;23.292;2023-04-26T04:31:04;68660.55;;;10.18;100.00
22930;BME280;11630;42.660;23.292;2023-04-26T04:33:36;68687.22;;;10.43;100.00
22930;BME280;11630;42.660;23.292;2023-04-26T04:36:06;68682.05;;;10.42;100.00
22930;BME280;11630;42.660;23.292;2023-04-26T04:38:37;68699.17;;;10.59;100.00
22930;BME280;11630;42.660;23.292;2023-04-26T04:41:08;68695.89;;;10.51;100.00
22930;BME280;11630;42.660;23.292;2023-04-26T04:43:39;68668.45;;;10.27;100.00
22930;BME280;11630;42.660;23.292;2023-04-26T04:46:09;68671.97;;;10.29;100.00
22930;BME280;11630;42.660;23.292;2023-04-26T04:48:41;68668.72;;;10.31;100.00
22930;BME280;11630;42.660;23.292;2023-04-26T04:51:11;68652.40;;;10.08;100.00
22930;BME280;11630;42.660;23.292;2023-04-26T04:53:42;68661.63;;;10.14;100.00
22930;BME280;11630;42.660;23.292;2023-04-26T04:56:12;68653.23;;;10.23;100.00
22930;BME280;11630;42.660;23.292;2023-04-26T04:58:43;68655.39;;;10.15;100.00
22930;BME280;11630;42.660;23.292;2023-04-26T05:01:14;68643.97;;;10.04;100.00
22930;BME280;11630;42.660;23.292;2023-04-26T05:03:45;68660.28;;;10.17;100.00
22930;BME280;11630;42.660;23.292;2023-04-26T05:06:16;68668.45;;;10.32;100.00
22930;BME280;11630;42.660;23.292;2023-04-26T05:08:47;68699.99;;;10.56;100.00
22930;BME280;11630;42.660;23.292;2023-04-26T05:11:17;68706.52;;;10.67;100.00
22930;BME280;11630;42.660;23.292;2023-04-26T05:13:48;68727.47;;;10.79;100.00
22930;BME280;11630;42.660;23.292;2023-04-26T05:16:19;68721.75;;;10.71;100.00
22930;BME280;11630;42.660;23.292;2023-04-26T05:18:50;68726.64;;;10.77;100.00
22930;BME280;11630;42.660;23.292;2023-04-26T05:21:22;68729.09;;;10.83;100.00
22930;BME280;11630;42.660;23.292;2023-04-26T05:23:53;68739.72;;;10.94;100.00
22930;BME280;11630;42.660;23.292;2023-04-26T05:26:23;68756.84;;;11.06;100.00
22930;BME280;11630;42.660;23.292;2023-04-26T05:28:53;68782.42;;;11.30;100.00
22930;BME280;11630;42.660;23.292;2023-04-26T05:31:23;68813.21;;;11.59;100.00
22930;BME280;11630;42.660;23.292;2023-04-26T05:33:55;68793.58;;;11.41;100.00
22930;BME280;11630;42.660;23.292;2023-04-26T05:36:26;68780.52;;;11.32;100.00
22930;BME280;11630;42.660;23.292;2023-04-26T05:38:57;68803.92;;;11.50;100.00
22930;BME280;11630;42.660;23.292;2023-04-26T05:41:27;68795.50;;;11.49;100.00
22930;BME280;11630;42.660;23.292;2023-04-26T05:43:57;68816.47;;;11.62;100.00
22930;BME280;11630;42.660;23.292;2023-04-26T05:46:27;68828.99;;;11.66;100.00
22930;BME280;11630;42.660;23.292;2023-04-26T05:48:57;68806.39;;;11.54;100.00
22930;BME280;11630;42.660;23.292;2023-04-26T05:51:28;68817.02;;;11.60;100.00
22930;BME280;11630;42.660;23.292;2023-04-26T05:53:59;68827.90;;;11.67;100.00
22930;BME280;11630;42.660;23.292;2023-04-26T05:56:29;68834.72;;;11.75;100.00
22930;BME280;11630;42.660;23.292;2023-04-26T05:59:00;68847.24;;;11.89;100.00
22930;BME280;11630;42.660;23.292;2023-04-26T06:01:31;68847.52;;;11.90;100.00
22930;BME280;11630;42.660;23.292;2023-04-26T06:04:04;68868.48;;;12.11;100.00
22930;BME280;11630;42.660;23.292;2023-04-26T06:06:37;68884.28;;;12.18;100.00
22930;BME280;11630;42.660;23.292;2023-04-26T06:09:06;68889.73;;;12.30;100.00
22930;BME280;11630;42.660;23.292;2023-04-26T06:11:37;68909.34;;;12.48;100.00
22930;BME280;11630;42.660;23.292;2023-04-26T06:14:08;68908.53;;;12.48;100.00
22930;BME280;11630;42.660;23.292;2023-04-26T06:16:41;68907.98;;;12.43;100.00
22930;BME280;11630;42.660;23.292;2023-04-26T06:19:12;68904.16;;;12.44;100.00
22930;BME280;11630;42.660;23.292;2023-04-26T06:21:44;68916.41;;;12.47;100.00
22930;BME280;11630;42.660;23.292;2023-04-26T06:24:15;68879.38;;;12.16;100.00
22930;BME280;11630;42.660;23.292;2023-04-26T06:26:46;68897.36;;;12.34;100.00
22930;BME280;11630;42.660;23.292;2023-04-26T06:29:17;68907.42;;;12.40;100.00
22930;BME280;11630;42.660;23.292;2023-04-26T06:31:52;68841.78;;;11.84;100.00
22930;BME280;11630;42.660;23.292;2023-04-26T06:34:18;68849.96;;;11.94;100.00
22930;BME280;11630;42.660;23.292;2023-04-26T06:36:52;68862.20;;;11.99;100.00
22930;BME280;11630;42.660;23.292;2023-04-26T06:39:23;68831.17;;;11.80;100.00
22930;BME280;11630;42.660;23.292;2023-04-26T06:41:54;68849.42;;;11.93;100.00
22930;BME280;11630;42.660;23.292;2023-04-26T06:44:24;68853.51;;;11.96;100.00
22930;BME280;11630;42.660;23.292;2023-04-26T06:47:10;68883.73;;;12.22;100.00
22930;BME280;11630;42.660;23.292;2023-04-26T06:49:34;68879.92;;;12.24;100.00
22930;BME280;11630;42.660;23.292;2023-04-26T06:52:05;68887.82;;;12.25;100.00
22930;BME280;11630;42.660;23.292;2023-04-26T06:54:40;68885.63;;;12.25;100.00
22930;BME280;11630;42.660;23.292;2023-04-26T06:57:11;68903.63;;;12.41;100.00
22930;BME280;11630;42.660;23.292;2023-04-26T06:59:41;68863.30;;;12.02;100.00
22930;BME280;11630;42.660;23.292;2023-04-26T07:02:12;68855.41;;;11.94;100.00
22930;BME280;11630;42.660;23.292;2023-04-26T07:04:43;68848.60;;;11.89;100.00
22930;BME280;11630;42.660;23.292;2023-04-26T07:07:16;68826.27;;;11.71;100.00
22930;BME280;11630;42.660;23.292;2023-04-26T07:09:46;68838.26;;;11.82;100.00
22930;BME280;11630;42.660;23.292;2023-04-26T07:12:18;68861.39;;;12.07;100.00
22930;BME280;11630;42.660;23.292;2023-04-26T07:14:48;68869.84;;;12.11;100.00
22930;BME280;11630;42.660;23.292;2023-04-26T07:17:19;68877.20;;;12.24;100.00
22930;BME280;11630;42.660;23.292;2023-04-26T07:19:49;68909.34;;;12.40;100.00
22930;BME280;11630;42.660;23.292;2023-04-26T07:22:20;68936.04;;;12.67;100.00
22930;BME280;11630;42.660;23.292;2023-04-26T07:24:51;68976.39;;;13.09;100.00
22930;BME280;11630;42.660;23.292;2023-04-26T07:27:21;68987.56;;;13.20;99.40
22930;BME280;11630;42.660;23.292;2023-04-26T07:29:55;68978.03;;;13.03;91.46
22930;BME280;11630;42.660;23.292;2023-04-26T07:32:26;68994.40;;;13.23;89.05
22930;BME280;11630;42.660;23.292;2023-04-26T07:34:57;68969.59;;;12.99;87.36
22930;BME280;11630;42.660;23.292;2023-04-26T07:37:27;68952.69;;;12.89;87.88
22930;BME280;11630;42.660;23.292;2023-04-26T07:40:00;68960.03;;;12.92;89.75
22930;BME280;11630;42.660;23.292;2023-04-26T07:42:31;68935.50;;;12.69;86.53
22930;BME280;11630;42.660;23.292;2023-04-26T07:45:02;68908.80;;;12.47;85.91
22930;BME280;11630;42.660;23.292;2023-04-26T07:47:33;68924.33;;;12.55;88.42
22930;BME280;11630;42.660;23.292;2023-04-26T07:50:09;68941.77;;;12.71;87.96
22930;BME280;11630;42.660;23.292;2023-04-26T07:52:40;68929.50;;;12.61;85.35
22930;BME280;11630;42.660;23.292;2023-04-26T07:55:10;68927.88;;;12.62;85.91
22930;BME280;11630;42.660;23.292;2023-04-26T07:57:41;68927.59;;;12.58;86.66
22930;BME280;11630;42.660;23.292;2023-04-26T08:00:13;68915.88;;;12.46;87.36
22930;BME280;11630;42.660;23.292;2023-04-26T08:02:45;68931.95;;;12.67;88.55
22930;BME280;11630;42.660;23.292;2023-04-26T08:05:17;68934.67;;;12.70;87.90
22930;BME280;11630;42.660;23.292;2023-04-26T08:07:48;68925.14;;;12.62;87.06
22930;BME280;11630;42.660;23.292;2023-04-26T08:10:18;68947.75;;;12.79;86.34
22930;BME280;11630;42.660;23.292;2023-04-26T08:12:50;68979.41;;;13.08;87.44
22930;BME280;11630;42.660;23.292;2023-04-26T08:15:21;68988.13;;;13.18;87.04
22930;BME280;11630;42.660;23.292;2023-04-26T08:17:52;68971.77;;;13.06;86.74
22930;BME280;11630;42.660;23.292;2023-04-26T08:20:23;68962.48;;;12.95;86.63
22930;BME280;11630;42.660;23.292;2023-04-26T08:22:57;68976.95;;;13.07;84.78
22930;BME280;11630;42.660;23.292;2023-04-26T08:25:26;69002.57;;;13.30;84.09
22930;BME280;11630;42.660;23.292;2023-04-26T08:27:57;68978.58;;;13.06;83.72
22930;BME280;11630;42.660;23.292;2023-04-26T08:30:28;68954.03;;;12.86;84.95
22930;BME280;11630;42.660;23.292;2023-04-26T08:32:59;68947.75;;;12.79;83.98
22930;BME280;11630;42.660;23.292;2023-04-26T08:35:30;68969.58;;;13.04;85.42
22930;BME280;11630;42.660;23.292;2023-04-26T08:38:01;68985.39;;;13.11;84.40
22930;BME280;11630;42.660;23.292;2023-04-26T08:40:32;68984.58;;;13.14;83.17
22930;BME280;11630;42.660;23.292;2023-04-26T08:43:06;68961.13;;;12.95;84.59
22930;BME280;11630;42.660;23.292;2023-04-26T08:45:35;68958.13;;;12.96;84.11
22930;BME280;11630;42.660;23.292;2023-04-26T08:48:10;68981.84;;;13.09;83.36
22930;BME280;11630;42.660;23.292;2023-04-26T08:50:42;69011.84;;;13.31;83.65
22930;BME280;11630;42.660;23.292;2023-04-26T08:53:17;68982.13;;;13.13;81.79
22930;BME280;11630;42.660;23.292;2023-04-26T08:55:48;68966.59;;;13.00;82.14
22930;BME280;11630;42.660;23.292;2023-04-26T08:58:19;68975.86;;;13.06;82.89
22930;BME280;11630;42.660;23.292;2023-04-26T09:00:51;68972.31;;;13.04;83.12
22930;BME280;11630;42.660;23.292;2023-04-26T09:03:24;68975.59;;;13.07;82.38
22930;BME280;11630;42.660;23.292;2023-04-26T09:05:55;68995.48;;;13.26;82.30
22930;BME280;11630;42.660;23.292;2023-04-26T09:08:27;69023.57;;;13.51;82.15
22930;BME280;11630;42.660;23.292;2023-04-26T09:10:58;69026.84;;;13.59;79.19
22930;BME280;11630;42.660;23.292;2023-04-26T09:13:29;69034.47;;;13.56;76.69
22930;BME280;11630;42.660;23.292;2023-04-26T09:16:00;69009.94;;;13.33;77.20
22930;BME280;11630;42.660;23.292;2023-04-26T09:18:31;69041.02;;;13.59;79.25
22930;BME280;11630;42.660;23.292;2023-04-26T09:21:03;69054.66;;;13.82;79.09
22930;BME280;11630;42.660;23.292;2023-04-26T09:23:35;69063.92;;;13.90;77.67
22930;BME280;11630;42.660;23.292;2023-04-26T09:26:21;69083.84;;;14.02;77.28
22930;BME280;11630;42.660;23.292;2023-04-26T09:29:35;69057.65;;;13.85;75.00
22930;BME280;11630;42.660;23.292;2023-04-26T09:31:40;69062.84;;;13.86;76.25
22930;BME280;11630;42.660;23.292;2023-04-26T09:34:12;69073.20;;;13.96;73.65
22930;BME280;11630;42.660;23.292;2023-04-26T09:36:55;69071.84;;;13.93;73.91
22930;BME280;11630;42.660;23.292;2023-04-26T09:39:36;69097.22;;;14.20;73.94
22930;BME280;11630;42.660;23.292;2023-04-26T09:42:09;69120.42;;;14.35;71.69
22930;BME280;11630;42.660;23.292;2023-04-26T09:44:41;69129.98;;;14.45;69.80
22930;BME280;11630;42.660;23.292;2023-04-26T09:47:12;69119.34;;;14.37;68.74
22930;BME280;11630;42.660;23.292;2023-04-26T09:49:46;69125.34;;;14.45;67.51
22930;BME280;11630;42.660;23.292;2023-04-26T09:52:21;69119.90;;;14.30;68.21
22930;BME280;11630;42.660;23.292;2023-04-26T09:54:53;69165.73;;;14.79;70.08
22930;BME280;11630;42.660;23.292;2023-04-26T09:57:24;69192.78;;;15.00;65.22
22930;BME280;11630;42.660;23.292;2023-04-26T09:59:54;69134.06;;;14.53;64.40
22930;BME280;11630;42.660;23.292;2023-04-26T10:02:26;69153.19;;;14.62;66.32
22930;BME280;11630;42.660;23.292;2023-04-26T10:04:58;69167.66;;;14.77;65.61
22930;BME280;11630;42.660;23.292;2023-04-26T10:07:30;69208.05;;;15.19;62.13
22930;BME280;11630;42.660;23.292;2023-04-26T10:10:02;69195.23;;;14.96;61.41
22930;BME280;11630;42.660;23.292;2023-04-26T10:12:34;69169.29;;;14.78;60.21
22930;BME280;11630;42.660;23.292;2023-04-26T10:15:07;69199.31;;;15.11;60.62
22930;BME280;11630;42.660;23.292;2023-04-26T10:17:39;69200.97;;;15.05;58.08
22930;BME280;11630;42.660;23.292;2023-04-26T10:20:15;69222.81;;;15.35;57.38
22930;BME280;11630;42.660;23.292;2023-04-26T10:22:50;69235.39;;;15.38;56.42
22930;BME280;11630;42.660;23.292;2023-04-26T10:25:21;69186.48;;;15.00;57.02
22930;BME280;11630;42.660;23.292;2023-04-26T10:27:53;69217.63;;;15.21;57.64
22930;BME280;11630;42.660;23.292;2023-04-26T10:30:23;69205.33;;;15.14;56.65
22930;BME280;11630;42.660;23.292;2023-04-26T10:35:31;69144.45;;;14.62;57.64
22930;BME280;11630;42.660;23.292;2023-04-26T10:40:39;69152.63;;;14.67;57.65
22930;BME280;11630;42.660;23.292;2023-04-26T10:45:49;69198.50;;;15.11;55.18
22930;BME280;11630;42.660;23.292;2023-04-26T10:51:09;69187.88;;;14.93;56.52
22930;BME280;11630;42.660;23.292;2023-04-26T10:59:13;69188.95;;;14.99;55.04
22930;BME280;11630;42.660;23.292;2023-04-26T11:01:45;69158.65;;;14.70;53.77
22930;BME280;11630;42.660;23.292;2023-04-26T11:04:16;69176.11;;;14.83;54.06
22930;BME280;11630;42.660;23.292;2023-04-26T11:06:55;69140.63;;;14.56;52.71
22930;BME280;11630;42.660;23.292;2023-04-26T11:09:39;69168.73;;;14.83;53.33
22930;BME280;11630;42.660;23.292;2023-04-26T11:12:14;69182.93;;;14.96;52.24
22930;BME280;11630;42.660;23.292;2023-04-26T11:14:45;69206.70;;;15.11;52.02
22930;BME280;11630;42.660;23.292;2023-04-26T11:17:16;69198.77;;;15.10;51.29
22930;BME280;11630;42.660;23.292;2023-04-26T11:19:47;69206.70;;;15.11;52.76
22930;BME280;11630;42.660;23.292;2023-04-26T11:22:20;69197.13;;;15.09;51.66
22930;BME280;11630;42.660;23.292;2023-04-26T11:24:50;69168.73;;;14.83;50.74
22930;BME280;11630;42.660;23.292;2023-04-26T11:27:21;69208.88;;;15.21;50.61
22930;BME280;11630;42.660;23.292;2023-04-26T11:29:53;69197.69;;;15.07;51.42
22930;BME280;11630;42.660;23.292;2023-04-26T11:32:23;69225.27;;;15.38;50.82
22930;BME280;11630;42.660;23.292;2023-04-26T11:34:58;69223.36;;;15.33;50.53
22930;BME280;11630;42.660;23.292;2023-04-26T11:37:28;69212.69;;;15.19;50.61
22930;BME280;11630;42.660;23.292;2023-04-26T11:39:58;69213.78;;;15.23;51.13
22930;BME280;11630;42.660;23.292;2023-04-26T11:42:29;69236.48;;;15.44;50.77
22930;BME280;11630;42.660;23.292;2023-04-26T11:45:00;69206.14;;;15.21;49.46
22930;BME280;11630;42.660;23.292;2023-04-26T11:47:32;69214.91;;;15.09;50.68
22930;BME280;11630;42.660;23.292;2023-04-26T11:50:06;69201.49;;;15.15;51.34
22930;BME280;11630;42.660;23.292;2023-04-26T11:52:38;69232.92;;;15.42;49.83
22930;BME280;11630;42.660;23.292;2023-04-26T11:55:09;69337.07;;;16.31;48.22
22930;BME280;11630;42.660;23.292;2023-04-26T11:57:39;69437.17;;;17.19;45.79
22930;BME280;11630;42.660;23.292;2023-04-26T12:00:12;69478.20;;;17.59;45.46
22930;BME280;11630;42.660;23.292;2023-04-26T12:02:46;69444.82;;;17.31;44.35
22930;BME280;11630;42.660;23.292;2023-04-26T12:05:28;69418.55;;;17.05;45.80
22930;BME280;11630;42.660;23.292;2023-04-26T12:08:01;69380.77;;;16.83;45.26
22930;BME280;11630;42.660;23.292;2023-04-26T12:10:34;69358.66;;;16.52;47.07
22930;BME280;11630;42.660;23.292;2023-04-26T12:13:05;69287.85;;;15.86;47.15
22930;BME280;11630;42.660;23.292;2023-04-26T12:15:36;69280.73;;;15.82;48.52
22930;BME280;11630;42.660;23.292;2023-04-26T12:18:09;69281.30;;;15.80;48.40
22930;BME280;11630;42.660;23.292;2023-04-26T12:20:41;69283.74;;;15.86;48.52
22930;BME280;11630;42.660;23.292;2023-04-26T12:23:16;69309.45;;;16.02;49.08
22930;BME280;11630;42.660;23.292;2023-04-26T12:25:53;69310.80;;;16.07;48.80
22930;BME280;11630;42.660;23.292;2023-04-26T12:28:24;69316.02;;;16.08;47.18
22930;BME280;11630;42.660;23.292;2023-04-26T12:30:55;69282.91;;;15.89;46.01
22930;BME280;11630;42.660;23.292;2023-04-26T12:33:24;69259.43;;;15.65;47.02
22930;BME280;11630;42.660;23.292;2023-04-26T12:35:55;69263.27;;;15.66;47.45
22930;BME280;11630;42.660;23.292;2023-04-26T12:38:26;69237.02;;;15.45;47.64
22930;BME280;11630;42.660;23.292;2023-04-26T12:40:58;69232.66;;;15.36;48.79
22930;BME280;11630;42.660;23.292;2023-04-26T12:43:28;69234.30;;;15.42;48.33
22930;BME280;11630;42.660;23.292;2023-04-26T12:45:59;69234.30;;;15.38;49.12
22930;BME280;11630;42.660;23.292;2023-04-26T12:48:29;69236.21;;;15.40;50.46
22930;BME280;11630;42.660;23.292;2023-04-26T12:51:01;69221.98;;;15.38;50.83
22930;BME280;11630;42.660;23.292;2023-04-26T12:53:32;69196.03;;;15.13;49.99
22930;BME280;11630;42.660;23.292;2023-04-26T12:56:03;69223.92;;;15.33;49.79
22930;BME280;11630;42.660;23.292;2023-04-26T12:58:34;69181.84;;;15.00;49.83
22930;BME280;11630;42.660;23.292;2023-04-26T13:01:05;69214.63;;;15.25;49.71
22930;BME280;11630;42.660;23.292;2023-04-26T13:03:36;69250.94;;;15.61;49.52
22930;BME280;11630;42.660;23.292;2023-04-26T13:06:07;69221.19;;;15.33;48.73
22930;BME280;11630;42.660;23.292;2023-04-26T13:08:37;69202.88;;;15.13;49.32
22930;BME280;11630;42.660;23.292;2023-04-26T13:11:08;69155.88;;;14.80;51.64
22930;BME280;11630;42.660;23.292;2023-04-26T13:13:39;69187.58;;;14.99;52.09
22930;BME280;11630;42.660;23.292;2023-04-26T13:16:09;69166.83;;;14.85;52.02
22930;BME280;11630;42.660;23.292;2023-04-26T13:18:40;69143.36;;;14.59;52.84
22930;BME280;11630;42.660;23.292;2023-04-26T13:21:11;69129.70;;;14.51;53.50
22930;BME280;11630;42.660;23.292;2023-04-26T13:23:42;69149.08;;;14.62;52.67
22930;BME280;11630;42.660;23.292;2023-04-26T13:26:13;69131.61;;;14.49;52.50